sensor_id;sensor_type;location;lat;lon;timestamp;temperature;humidity
48604;DHT22;32708;51.212;6.788;2023-02-28T00:00:36;2.70;29.90
48604;DHT22;32708;51.212;6.788;2023-02-28T00:03:02;2.60;35.50
48604;DHT22;32708;51.212;6.788;2023-02-28T00:05:29;2.70;30.40
48604;DHT22;32708;51.212;6.788;2023-02-28T00:07:55;2.70;33.80
48604;DHT22;32708;51.212;6.788;2023-02-28T00:10:24;2.80;33.80
48604;DHT22;32708;51.212;6.788;2023-02-28T00:12:52;2.60;43.00
48604;DHT22;32708;51.212;6.788;2023-02-28T00:15:19;2.50;37.90
48604;DHT22;32708;51.212;6.788;2023-02-28T00:17:46;2.50;41.20
48604;DHT22;32708;51.212;6.788;2023-02-28T00:20:13;2.50;40.80
48604;DHT22;32708;51.212;6.788;2023-02-28T00:22:43;2.50;40.10
48604;DHT22;32708;51.212;6.788;2023-02-28T00:25:13;2.40;51.90
48604;DHT22;32708;51.212;6.788;2023-02-28T00:27:40;2.60;50.50
48604;DHT22;32708;51.212;6.788;2023-02-28T00:30:11;2.40;57.90
48604;DHT22;32708;51.212;6.788;2023-02-28T00:32:38;2.40;51.40
48604;DHT22;32708;51.212;6.788;2023-02-28T00:35:04;2.50;53.90
48604;DHT22;32708;51.212;6.788;2023-02-28T00:37:31;2.50;48.40
48604;DHT22;32708;51.212;6.788;2023-02-28T00:39:58;2.60;41.70
48604;DHT22;32708;51.212;6.788;2023-02-28T00:42:27;2.40;57.10
48604;DHT22;32708;51.212;6.788;2023-02-28T00:44:53;2.90;54.00
48604;DHT22;32708;51.212;6.788;2023-02-28T00:47:19;2.50;51.00
48604;DHT22;32708;51.212;6.788;2023-02-28T00:49:45;2.50;54.50
48604;DHT22;32708;51.212;6.788;2023-02-28T00:52:11;2.40;56.90
48604;DHT22;32708;51.212;6.788;2023-02-28T00:54:37;2.40;61.10
48604;DHT22;32708;51.212;6.788;2023-02-28T00:57:03;2.70;56.50
48604;DHT22;32708;51.212;6.788;2023-02-28T00:59:31;2.50;50.00
48604;DHT22;32708;51.212;6.788;2023-02-28T01:01:57;2.40;53.30
48604;DHT22;32708;51.212;6.788;2023-02-28T01:04:23;2.30;59.50
48604;DHT22;32708;51.212;6.788;2023-02-28T01:06:49;2.20;61.80
48604;DHT22;32708;51.212;6.788;2023-02-28T01:09:15;2.70;67.00
48604;DHT22;32708;51.212;6.788;2023-02-28T01:11:42;2.30;62.90
48604;DHT22;32708;51.212;6.788;2023-02-28T01:14:14;2.20;65.50
48604;DHT22;32708;51.212;6.788;2023-02-28T01:16:41;2.30;64.60
48604;DHT22;32708;51.212;6.788;2023-02-28T01:19:07;2.30;61.00
48604;DHT22;32708;51.212;6.788;2023-02-28T01:21:33;2.30;63.90
48604;DHT22;32708;51.212;6.788;2023-02-28T01:24:01;2.30;60.50
48604;DHT22;32708;51.212;6.788;2023-02-28T01:26:27;2.10;71.50
48604;DHT22;32708;51.212;6.788;2023-02-28T01:28:53;2.20;67.20
48604;DHT22;32708;51.212;6.788;2023-02-28T01:31:21;2.20;67.40
48604;DHT22;32708;51.212;6.788;2023-02-28T01:33:49;2.20;63.00
48604;DHT22;32708;51.212;6.788;2023-02-28T01:36:18;2.30;60.00
48604;DHT22;32708;51.212;6.788;2023-02-28T01:38:44;2.30;55.70
48604;DHT22;32708;51.212;6.788;2023-02-28T01:41:24;2.30;59.10
48604;DHT22;32708;51.212;6.788;2023-02-28T01:44:53;2.20;56.60
48604;DHT22;32708;51.212;6.788;2023-02-28T01:46:52;2.30;57.70
48604;DHT22;32708;51.212;6.788;2023-02-28T01:49:19;2.30;53.60
48604;DHT22;32708;51.212;6.788;2023-02-28T01:51:49;2.20;66.40
48604;DHT22;32708;51.212;6.788;2023-02-28T01:54:24;2.50;76.40
48604;DHT22;32708;51.212;6.788;2023-02-28T01:57:07;2.20;80.80
48604;DHT22;32708;51.212;6.788;2023-02-28T01:59:49;2.20;80.00
48604;DHT22;32708;51.212;6.788;2023-02-28T02:02:20;2.00;88.30
48604;DHT22;32708;51.212;6.788;2023-02-28T02:07:33;2.10;90.00
48604;DHT22;32708;51.212;6.788;2023-02-28T02:10:03;2.10;86.00
48604;DHT22;32708;51.212;6.788;2023-02-28T02:15:31;2.00;89.00
48604;DHT22;32708;51.212;6.788;2023-02-28T02:18:11;1.90;92.40
48604;DHT22;32708;51.212;6.788;2023-02-28T02:23:48;2.20;91.30
48604;DHT22;32708;51.212;6.788;2023-02-28T02:32:38;1.90;91.70
48604;DHT22;32708;51.212;6.788;2023-02-28T02:35:13;2.10;85.50
48604;DHT22;32708;51.212;6.788;2023-02-28T02:40:34;2.00;85.50
48604;DHT22;32708;51.212;6.788;2023-02-28T02:45:51;2.10;89.00
48604;DHT22;32708;51.212;6.788;2023-02-28T02:48:26;2.00;90.20
48604;DHT22;32708;51.212;6.788;2023-02-28T02:50:57;2.00;88.20
48604;DHT22;32708;51.212;6.788;2023-02-28T02:53:34;1.90;93.70
48604;DHT22;32708;51.212;6.788;2023-02-28T02:56:04;1.80;93.20
48604;DHT22;32708;51.212;6.788;2023-02-28T02:58:37;1.70;94.00
48604;DHT22;32708;51.212;6.788;2023-02-28T03:01:12;1.70;95.60
48604;DHT22;32708;51.212;6.788;2023-02-28T03:03:40;1.70;94.70
48604;DHT22;32708;51.212;6.788;2023-02-28T03:06:06;1.80;96.40
48604;DHT22;32708;51.212;6.788;2023-02-28T03:08:36;1.70;95.50
48604;DHT22;32708;51.212;6.788;2023-02-28T03:11:11;1.90;98.80
48604;DHT22;32708;51.212;6.788;2023-02-28T03:19:52;1.60;99.60
48604;DHT22;32708;51.212;6.788;2023-02-28T03:22:50;1.50;99.10
48604;DHT22;32708;51.212;6.788;2023-02-28T03:30:38;1.40;99.90
48604;DHT22;32708;51.212;6.788;2023-02-28T03:33:15;1.40;99.90
48604;DHT22;32708;51.212;6.788;2023-02-28T03:36:09;1.50;97.90
48604;DHT22;32708;51.212;6.788;2023-02-28T03:38:57;1.40;96.70
48604;DHT22;32708;51.212;6.788;2023-02-28T03:41:43;1.40;94.90
48604;DHT22;32708;51.212;6.788;2023-02-28T03:44:14;1.40;90.20
48604;DHT22;32708;51.212;6.788;2023-02-28T03:47:02;1.40;81.60
48604;DHT22;32708;51.212;6.788;2023-02-28T03:49:49;1.40;81.10
48604;DHT22;32708;51.212;6.788;2023-02-28T03:52:19;1.50;74.20
48604;DHT22;32708;51.212;6.788;2023-02-28T03:54:53;1.50;71.90
48604;DHT22;32708;51.212;6.788;2023-02-28T04:00:07;1.30;73.60
48604;DHT22;32708;51.212;6.788;2023-02-28T04:02:38;1.30;71.60
48604;DHT22;32708;51.212;6.788;2023-02-28T04:05:06;1.40;75.70
48604;DHT22;32708;51.212;6.788;2023-02-28T04:07:33;1.20;74.10
48604;DHT22;32708;51.212;6.788;2023-02-28T04:10:03;1.60;78.40
48604;DHT22;32708;51.212;6.788;2023-02-28T04:12:30;1.20;75.60
48604;DHT22;32708;51.212;6.788;2023-02-28T04:14:56;1.20;83.70
48604;DHT22;32708;51.212;6.788;2023-02-28T04:17:22;1.20;71.70
48604;DHT22;32708;51.212;6.788;2023-02-28T04:19:48;1.20;79.00
48604;DHT22;32708;51.212;6.788;2023-02-28T04:22:15;1.20;75.70
48604;DHT22;32708;51.212;6.788;2023-02-28T04:24:42;1.20;74.00
48604;DHT22;32708;51.212;6.788;2023-02-28T04:27:09;1.00;80.40
48604;DHT22;32708;51.212;6.788;2023-02-28T04:29:35;1.00;85.90
48604;DHT22;32708;51.212;6.788;2023-02-28T04:32:02;1.20;81.50
48604;DHT22;32708;51.212;6.788;2023-02-28T04:34:31;0.90;84.00
48604;DHT22;32708;51.212;6.788;2023-02-28T04:36:57;0.90;83.60
48604;DHT22;32708;51.212;6.788;2023-02-28T04:39:24;1.00;78.90
48604;DHT22;32708;51.212;6.788;2023-02-28T04:41:50;1.10;73.00
48604;DHT22;32708;51.212;6.788;2023-02-28T04:44:17;1.00;79.50
48604;DHT22;32708;51.212;6.788;2023-02-28T04:46:44;1.00;76.20
48604;DHT22;32708;51.212;6.788;2023-02-28T04:49:11;1.10;70.50
48604;DHT22;32708;51.212;6.788;2023-02-28T04:51:39;0.90;78.90
48604;DHT22;32708;51.212;6.788;2023-02-28T04:54:05;1.00;75.00
48604;DHT22;32708;51.212;6.788;2023-02-28T04:56:31;0.90;72.10
48604;DHT22;32708;51.212;6.788;2023-02-28T04:58:57;1.10;65.20
48604;DHT22;32708;51.212;6.788;2023-02-28T05:01:28;1.00;66.80
48604;DHT22;32708;51.212;6.788;2023-02-28T05:03:57;0.90;62.20
48604;DHT22;32708;51.212;6.788;2023-02-28T05:06:25;1.00;54.40
48604;DHT22;32708;51.212;6.788;2023-02-28T05:08:52;0.90;53.00
48604;DHT22;32708;51.212;6.788;2023-02-28T05:11:31;1.00;52.00
48604;DHT22;32708;51.212;6.788;2023-02-28T05:14:02;1.00;39.70
48604;DHT22;32708;51.212;6.788;2023-02-28T05:16:30;1.10;35.40
48604;DHT22;32708;51.212;6.788;2023-02-28T05:18:56;1.00;27.10
48604;DHT22;32708;51.212;6.788;2023-02-28T05:23:52;1.00;23.40
48604;DHT22;32708;51.212;6.788;2023-02-28T05:26:19;1.00;19.90
48604;DHT22;32708;51.212;6.788;2023-02-28T05:28:46;1.00;13.80
48604;DHT22;32708;51.212;6.788;2023-02-28T05:31:12;1.10;6.40
48604;DHT22;32708;51.212;6.788;2023-02-28T05:33:39;1.10;1.00
48604;DHT22;32708;51.212;6.788;2023-02-28T05:36:05;1.00;5.80
48604;DHT22;32708;51.212;6.788;2023-02-28T05:38:32;1.00;2.50
48604;DHT22;32708;51.212;6.788;2023-02-28T05:40:58;1.00;5.10
48604;DHT22;32708;51.212;6.788;2023-02-28T05:43:24;1.00;2.40
48604;DHT22;32708;51.212;6.788;2023-02-28T05:45:50;1.00;1.00
48604;DHT22;32708;51.212;6.788;2023-02-28T05:48:16;0.90;8.80
48604;DHT22;32708;51.212;6.788;2023-02-28T05:50:44;0.90;16.10
48604;DHT22;32708;51.212;6.788;2023-02-28T05:53:11;0.90;6.50
48604;DHT22;32708;51.212;6.788;2023-02-28T05:55:37;0.90;8.20
48604;DHT22;32708;51.212;6.788;2023-02-28T05:58:04;1.40;10.50
48604;DHT22;32708;51.212;6.788;2023-02-28T06:00:30;0.90;8.30
48604;DHT22;32708;51.212;6.788;2023-02-28T06:02:56;1.00;8.40
48604;DHT22;32708;51.212;6.788;2023-02-28T06:05:23;0.90;14.20
48604;DHT22;32708;51.212;6.788;2023-02-28T06:07:50;0.90;1.00
48604;DHT22;32708;51.212;6.788;2023-02-28T06:10:16;0.90;1.00
48604;DHT22;32708;51.212;6.788;2023-02-28T06:12:42;0.90;1.50
48604;DHT22;32708;51.212;6.788;2023-02-28T06:15:15;1.30;1.00
48604;DHT22;32708;51.212;6.788;2023-02-28T06:17:43;1.00;1.00
48604;DHT22;32708;51.212;6.788;2023-02-28T06:20:10;0.90;3.30
48604;DHT22;32708;51.212;6.788;2023-02-28T06:22:39;0.90;2.70
48604;DHT22;32708;51.212;6.788;2023-02-28T06:25:06;0.90;1.00
48604;DHT22;32708;51.212;6.788;2023-02-28T06:27:33;0.80;1.00
48604;DHT22;32708;51.212;6.788;2023-02-28T06:30:00;0.80;1.00
48604;DHT22;32708;51.212;6.788;2023-02-28T06:32:26;0.80;1.00
48604;DHT22;32708;51.212;6.788;2023-02-28T06:34:52;1.10;1.00
48604;DHT22;32708;51.212;6.788;2023-02-28T06:37:19;0.80;1.00
48604;DHT22;32708;51.212;6.788;2023-02-28T06:39:45;0.80;1.00
48604;DHT22;32708;51.212;6.788;2023-02-28T06:42:11;1.10;1.00
48604;DHT22;32708;51.212;6.788;2023-02-28T06:44:38;1.20;1.00
48604;DHT22;32708;51.212;6.788;2023-02-28T06:47:05;1.40;1.00
48604;DHT22;32708;51.212;6.788;2023-02-28T06:49:33;1.50;1.00
48604;DHT22;32708;51.212;6.788;2023-02-28T06:52:00;1.30;1.00
48604;DHT22;32708;51.212;6.788;2023-02-28T06:54:26;1.50;1.00
48604;DHT22;32708;51.212;6.788;2023-02-28T06:56:53;1.10;1.00
48604;DHT22;32708;51.212;6.788;2023-02-28T06:59:20;1.20;1.00
48604;DHT22;32708;51.212;6.788;2023-02-28T07:01:46;1.50;99.90
48604;DHT22;32708;51.212;6.788;2023-02-28T07:04:12;1.20;1.00
48604;DHT22;32708;51.212;6.788;2023-02-28T07:06:39;1.60;99.90
48604;DHT22;32708;51.212;6.788;2023-02-28T07:09:05;2.00;99.90
48604;DHT22;32708;51.212;6.788;2023-02-28T07:11:31;2.60;30.50
48604;DHT22;32708;51.212;6.788;2023-02-28T07:13:57;2.80;99.90
48604;DHT22;32708;51.212;6.788;2023-02-28T07:16:24;3.00;99.90
48604;DHT22;32708;51.212;6.788;2023-02-28T07:18:54;3.50;34.60
48604;DHT22;32708;51.212;6.788;2023-02-28T07:21:20;3.60;99.90
48604;DHT22;32708;51.212;6.788;2023-02-28T07:23:46;3.70;99.90
48604;DHT22;32708;51.212;6.788;2023-02-28T07:26:15;4.00;46.80
48604;DHT22;32708;51.212;6.788;2023-02-28T07:28:44;3.70;1.00
48604;DHT22;32708;51.212;6.788;2023-02-28T07:31:11;3.70;96.80
48604;DHT22;32708;51.212;6.788;2023-02-28T07:33:38;4.00;7.30
48604;DHT22;32708;51.212;6.788;2023-02-28T07:36:07;3.70;1.00
48604;DHT22;32708;51.212;6.788;2023-02-28T07:38:37;3.70;1.00
48604;DHT22;32708;51.212;6.788;2023-02-28T07:41:06;4.10;99.90
48604;DHT22;32708;51.212;6.788;2023-02-28T07:43:34;4.00;99.90
48604;DHT22;32708;51.212;6.788;2023-02-28T07:46:12;3.90;99.90
48604;DHT22;32708;51.212;6.788;2023-02-28T07:48:40;4.40;34.50
48604;DHT22;32708;51.212;6.788;2023-02-28T07:51:07;4.20;1.00
48604;DHT22;32708;51.212;6.788;2023-02-28T07:53:33;4.30;99.90
48604;DHT22;32708;51.212;6.788;2023-02-28T07:56:01;4.40;99.90
48604;DHT22;32708;51.212;6.788;2023-02-28T07:58:29;4.60;99.90
48604;DHT22;32708;51.212;6.788;2023-02-28T08:00:55;4.50;99.90
48604;DHT22;32708;51.212;6.788;2023-02-28T08:03:24;4.20;99.90
48604;DHT22;32708;51.212;6.788;2023-02-28T08:05:50;4.30;99.90
48604;DHT22;32708;51.212;6.788;2023-02-28T08:08:18;4.80;99.90
48604;DHT22;32708;51.212;6.788;2023-02-28T08:10:44;4.90;99.90
48604;DHT22;32708;51.212;6.788;2023-02-28T08:13:10;4.50;99.90
48604;DHT22;32708;51.212;6.788;2023-02-28T08:15:36;4.90;99.90
48604;DHT22;32708;51.212;6.788;2023-02-28T08:18:02;4.90;99.90
48604;DHT22;32708;51.212;6.788;2023-02-28T08:20:29;4.80;96.80
48604;DHT22;32708;51.212;6.788;2023-02-28T08:22:55;5.10;96.30
48604;DHT22;32708;51.212;6.788;2023-02-28T08:25:21;4.50;92.70
48604;DHT22;32708;51.212;6.788;2023-02-28T08:27:47;3.90;99.90
48604;DHT22;32708;51.212;6.788;2023-02-28T08:30:14;4.00;99.90
48604;DHT22;32708;51.212;6.788;2023-02-28T08:32:41;3.60;99.90
48604;DHT22;32708;51.212;6.788;2023-02-28T08:35:08;3.70;99.90
48604;DHT22;32708;51.212;6.788;2023-02-28T08:37:35;3.80;99.90
48604;DHT22;32708;51.212;6.788;2023-02-28T08:40:01;3.70;99.90
48604;DHT22;32708;51.212;6.788;2023-02-28T08:42:30;3.60;99.90
48604;DHT22;32708;51.212;6.788;2023-02-28T08:44:56;3.80;99.90
48604;DHT22;32708;51.212;6.788;2023-02-28T08:47:22;3.60;99.90
48604;DHT22;32708;51.212;6.788;2023-02-28T08:49:48;3.70;99.90
48604;DHT22;32708;51.212;6.788;2023-02-28T08:52:14;4.00;99.90
48604;DHT22;32708;51.212;6.788;2023-02-28T08:54:40;3.90;99.90
48604;DHT22;32708;51.212;6.788;2023-02-28T08:57:06;4.00;99.90
48604;DHT22;32708;51.212;6.788;2023-02-28T08:59:32;3.60;94.40
48604;DHT22;32708;51.212;6.788;2023-02-28T09:01:58;3.90;99.90
48604;DHT22;32708;51.212;6.788;2023-02-28T09:04:24;3.60;99.70
48604;DHT22;32708;51.212;6.788;2023-02-28T09:06:50;3.70;89.70
48604;DHT22;32708;51.212;6.788;2023-02-28T09:09:17;3.70;54.30
48604;DHT22;32708;51.212;6.788;2023-02-28T09:11:42;3.90;56.40
48604;DHT22;32708;51.212;6.788;2023-02-28T09:14:09;4.10;45.30
48604;DHT22;32708;51.212;6.788;2023-02-28T09:16:35;4.10;25.30
48604;DHT22;32708;51.212;6.788;2023-02-28T09:19:01;4.00;28.40
48604;DHT22;32708;51.212;6.788;2023-02-28T09:21:27;3.90;21.70
48604;DHT22;32708;51.212;6.788;2023-02-28T09:23:54;4.00;6.70
48604;DHT22;32708;51.212;6.788;2023-02-28T09:26:25;3.90;12.60
48604;DHT22;32708;51.212;6.788;2023-02-28T09:28:52;3.80;21.10
48604;DHT22;32708;51.212;6.788;2023-02-28T09:31:22;4.40;1.00
48604;DHT22;32708;51.212;6.788;2023-02-28T09:33:54;3.70;6.80
48604;DHT22;32708;51.212;6.788;2023-02-28T09:36:22;3.60;1.00
48604;DHT22;32708;51.212;6.788;2023-02-28T09:38:48;3.60;1.00
48604;DHT22;32708;51.212;6.788;2023-02-28T09:41:23;3.70;1.00
48604;DHT22;32708;51.212;6.788;2023-02-28T09:44:00;3.60;1.00
48604;DHT22;32708;51.212;6.788;2023-02-28T09:46:39;3.80;3.60
48604;DHT22;32708;51.212;6.788;2023-02-28T09:49:40;3.90;11.60
48604;DHT22;32708;51.212;6.788;2023-02-28T09:52:15;4.30;1.00
48604;DHT22;32708;51.212;6.788;2023-02-28T09:54:43;4.00;1.00
48604;DHT22;32708;51.212;6.788;2023-02-28T09:57:32;4.30;1.00
48604;DHT22;32708;51.212;6.788;2023-02-28T10:03:04;4.50;1.00
48604;DHT22;32708;51.212;6.788;2023-02-28T10:08:39;4.40;1.00
48604;DHT22;32708;51.212;6.788;2023-02-28T10:11:15;4.40;1.00
48604;DHT22;32708;51.212;6.788;2023-02-28T10:16:40;4.20;1.00
48604;DHT22;32708;51.212;6.788;2023-02-28T10:19:26;4.30;1.00
48604;DHT22;32708;51.212;6.788;2023-02-28T10:22:11;4.50;1.00
48604;DHT22;32708;51.212;6.788;2023-02-28T10:24:46;4.50;1.00
48604;DHT22;32708;51.212;6.788;2023-02-28T10:27:21;4.80;1.00
48604;DHT22;32708;51.212;6.788;2023-02-28T10:29:56;4.80;1.00
48604;DHT22;32708;51.212;6.788;2023-02-28T10:32:25;5.10;1.00
48604;DHT22;32708;51.212;6.788;2023-02-28T10:35:22;4.90;1.00
48604;DHT22;32708;51.212;6.788;2023-02-28T10:37:55;5.60;1.00
48604;DHT22;32708;51.212;6.788;2023-02-28T10:45:30;5.20;1.00
48604;DHT22;32708;51.212;6.788;2023-02-28T10:56:12;6.10;1.00
48604;DHT22;32708;51.212;6.788;2023-02-28T11:01:42;5.30;1.00
48604;DHT22;32708;51.212;6.788;2023-02-28T11:04:36;5.30;1.00
48604;DHT22;32708;51.212;6.788;2023-02-28T11:07:20;5.20;1.00
48604;DHT22;32708;51.212;6.788;2023-02-28T11:09:52;5.60;1.00
48604;DHT22;32708;51.212;6.788;2023-02-28T11:12:37;5.30;1.00
48604;DHT22;32708;51.212;6.788;2023-02-28T11:15:18;5.30;1.00
48604;DHT22;32708;51.212;6.788;2023-02-28T11:20:50;5.20;1.00
48604;DHT22;32708;51.212;6.788;2023-02-28T11:23:18;5.00;1.00
48604;DHT22;32708;51.212;6.788;2023-02-28T11:25:51;5.30;1.00
48604;DHT22;32708;51.212;6.788;2023-02-28T11:28:40;5.70;1.00
48604;DHT22;32708;51.212;6.788;2023-02-28T11:33:55;5.60;1.00
48604;DHT22;32708;51.212;6.788;2023-02-28T11:36:25;5.30;1.00
48604;DHT22;32708;51.212;6.788;2023-02-28T11:38:54;6.10;1.00
48604;DHT22;32708;51.212;6.788;2023-02-28T11:47:17;5.80;1.00
48604;DHT22;32708;51.212;6.788;2023-02-28T11:50:16;6.00;1.00
48604;DHT22;32708;51.212;6.788;2023-02-28T11:52:56;5.70;99.90
48604;DHT22;32708;51.212;6.788;2023-02-28T11:58:26;5.30;99.90
48604;DHT22;32708;51.212;6.788;2023-02-28T12:01:08;5.30;1.00
48604;DHT22;32708;51.212;6.788;2023-02-28T12:03:47;5.80;99.90
48604;DHT22;32708;51.212;6.788;2023-02-28T12:06:43;5.40;99.90
48604;DHT22;32708;51.212;6.788;2023-02-28T12:12:05;5.50;99.90
48604;DHT22;32708;51.212;6.788;2023-02-28T12:23:32;5.80;99.90
48604;DHT22;32708;51.212;6.788;2023-02-28T12:26:41;5.30;1.00
48604;DHT22;32708;51.212;6.788;2023-02-28T12:32:08;5.10;1.00
48604;DHT22;32708;51.212;6.788;2023-02-28T12:34:52;5.40;1.00
48604;DHT22;32708;51.212;6.788;2023-02-28T12:37:37;5.70;1.00
48604;DHT22;32708;51.212;6.788;2023-02-28T12:40:13;5.40;1.00
48604;DHT22;32708;51.212;6.788;2023-02-28T12:42:50;5.20;1.00
48604;DHT22;32708;51.212;6.788;2023-02-28T12:45:24;5.30;1.00
48604;DHT22;32708;51.212;6.788;2023-02-28T12:48:02;5.30;1.00
48604;DHT22;32708;51.212;6.788;2023-02-28T12:50:30;5.30;1.00
48604;DHT22;32708;51.212;6.788;2023-02-28T12:53:11;5.60;1.00
48604;DHT22;32708;51.212;6.788;2023-02-28T12:55:56;5.40;1.00
48604;DHT22;32708;51.212;6.788;2023-02-28T12:58:37;5.50;1.00
48604;DHT22;32708;51.212;6.788;2023-02-28T13:01:31;5.50;1.00
48604;DHT22;32708;51.212;6.788;2023-02-28T13:04:14;5.60;1.00
48604;DHT22;32708;51.212;6.788;2023-02-28T13:07:15;5.40;1.00
48604;DHT22;32708;51.212;6.788;2023-02-28T13:09:56;5.40;1.00
48604;DHT22;32708;51.212;6.788;2023-02-28T13:12:24;5.40;1.00
48604;DHT22;32708;51.212;6.788;2023-02-28T13:15:02;5.40;1.00
48604;DHT22;32708;51.212;6.788;2023-02-28T13:17:29;5.50;1.00
48604;DHT22;32708;51.212;6.788;2023-02-28T13:20:00;5.70;1.00
48604;DHT22;32708;51.212;6.788;2023-02-28T13:25:02;5.80;1.00
48604;DHT22;32708;51.212;6.788;2023-02-28T13:27:37;5.70;1.00
48604;DHT22;32708;51.212;6.788;2023-02-28T13:33:23;6.00;1.00
48604;DHT22;32708;51.212;6.788;2023-02-28T13:38:49;5.90;1.00
48604;DHT22;32708;51.212;6.788;2023-02-28T13:44:08;6.10;1.00
48604;DHT22;32708;51.212;6.788;2023-02-28T13:47:23;5.90;1.00
48604;DHT22;32708;51.212;6.788;2023-02-28T14:07:43;6.30;1.00
48604;DHT22;32708;51.212;6.788;2023-02-28T14:10:33;5.90;1.00
48604;DHT22;32708;51.212;6.788;2023-02-28T14:16:13;5.70;1.00
48604;DHT22;32708;51.212;6.788;2023-02-28T14:18:47;5.80;1.00
48604;DHT22;32708;51.212;6.788;2023-02-28T14:21:25;5.90;1.00
48604;DHT22;32708;51.212;6.788;2023-02-28T14:24:23;6.10;1.00
48604;DHT22;32708;51.212;6.788;2023-02-28T14:32:21;6.30;1.00
48604;DHT22;32708;51.212;6.788;2023-02-28T14:35:00;6.00;1.00
48604;DHT22;32708;51.212;6.788;2023-02-28T14:37:33;6.10;1.00
48604;DHT22;32708;51.212;6.788;2023-02-28T14:40:01;6.10;1.00
48604;DHT22;32708;51.212;6.788;2023-02-28T14:42:37;6.20;1.00
48604;DHT22;32708;51.212;6.788;2023-02-28T14:45:19;6.30;1.00
48604;DHT22;32708;51.212;6.788;2023-02-28T14:47:47;6.10;1.00
48604;DHT22;32708;51.212;6.788;2023-02-28T14:50:26;6.60;1.00
48604;DHT22;32708;51.212;6.788;2023-02-28T14:52:54;6.30;1.00
48604;DHT22;32708;51.212;6.788;2023-02-28T14:55:28;6.20;1.00
48604;DHT22;32708;51.212;6.788;2023-02-28T14:58:01;6.20;1.00
48604;DHT22;32708;51.212;6.788;2023-02-28T15:00:46;6.20;1.00
48604;DHT22;32708;51.212;6.788;2023-02-28T15:03:33;6.30;1.00
48604;DHT22;32708;51.212;6.788;2023-02-28T15:06:02;6.20;1.00
48604;DHT22;32708;51.212;6.788;2023-02-28T15:08:33;6.30;1.00
48604;DHT22;32708;51.212;6.788;2023-02-28T15:11:13;6.10;1.00
48604;DHT22;32708;51.212;6.788;2023-02-28T15:13:54;6.10;1.00
48604;DHT22;32708;51.212;6.788;2023-02-28T15:16:28;6.20;1.00
48604;DHT22;32708;51.212;6.788;2023-02-28T15:19:07;6.20;1.00
48604;DHT22;32708;51.212;6.788;2023-02-28T15:21:45;6.20;1.00
48604;DHT22;32708;51.212;6.788;2023-02-28T15:27:12;6.20;1.00
48604;DHT22;32708;51.212;6.788;2023-02-28T15:29:53;6.30;1.00
48604;DHT22;32708;51.212;6.788;2023-02-28T15:32:38;6.30;1.00
48604;DHT22;32708;51.212;6.788;2023-02-28T15:38:04;6.30;1.00
48604;DHT22;32708;51.212;6.788;2023-02-28T15:40:45;6.40;1.00
48604;DHT22;32708;51.212;6.788;2023-02-28T15:43:39;6.10;1.00
48604;DHT22;32708;51.212;6.788;2023-02-28T15:46:11;6.20;4.70
48604;DHT22;32708;51.212;6.788;2023-02-28T15:48:52;6.20;5.90
48604;DHT22;32708;51.212;6.788;2023-02-28T15:51:33;6.10;18.10
48604;DHT22;32708;51.212;6.788;2023-02-28T15:54:10;6.20;10.70
48604;DHT22;32708;51.212;6.788;2023-02-28T15:56:46;6.10;13.40
48604;DHT22;32708;51.212;6.788;2023-02-28T15:59:19;6.00;27.00
48604;DHT22;32708;51.212;6.788;2023-02-28T16:01:46;6.00;32.60
48604;DHT22;32708;51.212;6.788;2023-02-28T16:04:19;6.10;48.40
48604;DHT22;32708;51.212;6.788;2023-02-28T16:07:12;6.10;25.80
48604;DHT22;32708;51.212;6.788;2023-02-28T16:09:39;6.00;43.10
48604;DHT22;32708;51.212;6.788;2023-02-28T16:12:10;5.90;56.60
48604;DHT22;32708;51.212;6.788;2023-02-28T16:14:40;6.00;71.40
48604;DHT22;32708;51.212;6.788;2023-02-28T16:17:27;5.90;93.10
48604;DHT22;32708;51.212;6.788;2023-02-28T16:19:55;5.90;99.90
48604;DHT22;32708;51.212;6.788;2023-02-28T16:22:21;6.00;99.90
48604;DHT22;32708;51.212;6.788;2023-02-28T16:24:47;6.00;99.90
48604;DHT22;32708;51.212;6.788;2023-02-28T16:27:40;5.80;99.90
48604;DHT22;32708;51.212;6.788;2023-02-28T16:30:29;5.80;99.90
48604;DHT22;32708;51.212;6.788;2023-02-28T16:32:59;5.80;99.90
48604;DHT22;32708;51.212;6.788;2023-02-28T16:35:25;5.80;99.90
48604;DHT22;32708;51.212;6.788;2023-02-28T16:37:52;5.60;99.90
48604;DHT22;32708;51.212;6.788;2023-02-28T16:40:22;5.50;99.90
48604;DHT22;32708;51.212;6.788;2023-02-28T16:42:52;5.50;99.90
48604;DHT22;32708;51.212;6.788;2023-02-28T16:45:24;5.50;99.90
48604;DHT22;32708;51.212;6.788;2023-02-28T16:47:51;5.40;99.90
48604;DHT22;32708;51.212;6.788;2023-02-28T16:50:31;5.50;99.90
48604;DHT22;32708;51.212;6.788;2023-02-28T16:53:00;5.50;99.90
48604;DHT22;32708;51.212;6.788;2023-02-28T16:55:29;5.50;1.00
48604;DHT22;32708;51.212;6.788;2023-02-28T16:57:57;5.40;13.40
48604;DHT22;32708;51.212;6.788;2023-02-28T17:00:25;5.40;1.00
48604;DHT22;32708;51.212;6.788;2023-02-28T17:02:51;5.20;56.30
48604;DHT22;32708;51.212;6.788;2023-02-28T17:05:18;5.30;98.80
48604;DHT22;32708;51.212;6.788;2023-02-28T17:07:47;5.40;82.30
48604;DHT22;32708;51.212;6.788;2023-02-28T17:12:39;5.30;78.90
48604;DHT22;32708;51.212;6.788;2023-02-28T17:15:06;5.30;59.60
48604;DHT22;32708;51.212;6.788;2023-02-28T17:17:35;5.20;99.90
48604;DHT22;32708;51.212;6.788;2023-02-28T17:20:02;5.10;99.90
48604;DHT22;32708;51.212;6.788;2023-02-28T17:22:29;5.10;99.90
48604;DHT22;32708;51.212;6.788;2023-02-28T17:24:55;5.00;99.90
48604;DHT22;32708;51.212;6.788;2023-02-28T17:27:25;5.00;99.90
48604;DHT22;32708;51.212;6.788;2023-02-28T17:29:51;5.10;99.90
48604;DHT22;32708;51.212;6.788;2023-02-28T17:32:17;5.00;99.90
48604;DHT22;32708;51.212;6.788;2023-02-28T17:34:43;5.00;99.90
48604;DHT22;32708;51.212;6.788;2023-02-28T17:37:13;5.20;99.90
48604;DHT22;32708;51.212;6.788;2023-02-28T17:39:45;5.00;99.90
48604;DHT22;32708;51.212;6.788;2023-02-28T17:42:11;5.30;99.90
48604;DHT22;32708;51.212;6.788;2023-02-28T17:44:37;5.10;99.90
48604;DHT22;32708;51.212;6.788;2023-02-28T17:47:03;4.90;99.90
48604;DHT22;32708;51.212;6.788;2023-02-28T17:49:30;5.00;1.00
48604;DHT22;32708;51.212;6.788;2023-02-28T17:51:55;4.90;14.20
48604;DHT22;32708;51.212;6.788;2023-02-28T17:54:21;4.80;99.90
48604;DHT22;32708;51.212;6.788;2023-02-28T17:56:50;4.80;99.90
48604;DHT22;32708;51.212;6.788;2023-02-28T17:59:18;4.80;99.90
48604;DHT22;32708;51.212;6.788;2023-02-28T18:01:47;4.70;1.00
48604;DHT22;32708;51.212;6.788;2023-02-28T18:04:16;4.80;99.90
48604;DHT22;32708;51.212;6.788;2023-02-28T18:06:44;4.80;1.00
48604;DHT22;32708;51.212;6.788;2023-02-28T18:09:18;4.70;1.00
48604;DHT22;32708;51.212;6.788;2023-02-28T18:11:50;4.70;79.80
48604;DHT22;32708;51.212;6.788;2023-02-28T18:14:20;4.70;99.90
48604;DHT22;32708;51.212;6.788;2023-02-28T18:16:48;4.70;99.90
48604;DHT22;32708;51.212;6.788;2023-02-28T18:19:15;4.70;99.90
48604;DHT22;32708;51.212;6.788;2023-02-28T18:21:48;4.70;99.90
48604;DHT22;32708;51.212;6.788;2023-02-28T18:24:15;4.60;1.00
48604;DHT22;32708;51.212;6.788;2023-02-28T18:26:43;4.60;1.00
48604;DHT22;32708;51.212;6.788;2023-02-28T18:29:17;4.40;99.90
48604;DHT22;32708;51.212;6.788;2023-02-28T18:31:46;4.60;69.80
48604;DHT22;32708;51.212;6.788;2023-02-28T18:34:12;4.50;99.90
48604;DHT22;32708;51.212;6.788;2023-02-28T18:36:39;4.40;13.10